Time;durP1;ratioP1;P1;durP2;ratioP2;P2;SDS_P1;SDS_P2;PMS_P1;PMS_P2;Temp;Humidity;BMP_temperature;BMP_pressure;BME280_temperature;BME280_humidity;BME280_pressure;Samples;Min_cycle;Max_cycle;Signal;HPM_P1;HPM_P2
2022/04/07 00:05:04;;;;;;;15.50;8.73;;;;;;;;;;8267531;28;20050;-87
2022/04/07 00:09:08;;;;;;;15.48;8.30;;;;;;;;;;8266213;28;20461;-86
2022/04/07 00:13:16;;;;;;;14.70;7.40;;;;;;;;;;8267523;28;20121;-86
2022/04/07 00:17:19;;;;;;;15.23;8.07;;;;;;;;;;8266382;28;20473;-86
2022/04/07 00:21:35;;;;;;;17.60;8.93;;;;;;;;;;8266902;28;20490;-86
2022/04/07 00:25:44;;;;;;;16.40;7.47;;;;;;;;;;8267199;28;20046;-86
2022/04/07 00:29:49;;;;;;;15.18;8.20;;;;;;;;;;8266461;28;20042;-86
2022/04/07 00:33:52;;;;;;;16.60;8.70;;;;;;;;;;8266535;28;20406;-86
2022/04/07 00:37:58;;;;;;;18.45;8.13;;;;;;;;;;8266041;28;20447;-86
2022/04/07 00:42:04;;;;;;;20.00;8.63;;;;;;;;;;8265223;28;20061;-86
2022/04/07 00:46:09;;;;;;;16.83;7.80;;;;;;;;;;8266507;28;20054;-86
2022/04/07 00:50:12;;;;;;;14.43;7.95;;;;;;;;;;8407634;23;20089;-86
2022/04/07 00:54:16;;;;;;;13.00;8.02;;;;;;;;;;8266422;28;20478;-86
2022/04/07 00:58:22;;;;;;;23.08;9.73;;;;;;;;;;8266134;28;20548;-86
2022/04/07 01:02:25;;;;;;;17.55;7.53;;;;;;;;;;8253468;28;20050;-86
2022/04/07 01:06:30;;;;;;;17.95;8.18;;;;;;;;;;8236224;28;20051;-88
2022/04/07 01:10:37;;;;;;;35.72;14.60;;;;;;;;;;8251937;28;20050;-89
2022/04/07 01:14:58;;;;;;;29.10;11.57;;;;;;;;;;8313593;23;20070;-86
2022/04/07 01:19:02;;;;;;;20.40;9.25;;;;;;;;;;8245535;28;20043;-86
2022/04/07 01:23:07;;;;;;;16.80;8.45;;;;;;;;;;8239337;28;20049;-86
2022/04/07 01:27:15;;;;;;;14.77;7.95;;;;;;;;;;8256937;28;20062;-86
2022/04/07 01:31:18;;;;;;;15.85;7.47;;;;;;;;;;8244339;28;20058;-85
2022/04/07 01:35:22;;;;;;;17.48;8.60;;;;;;;;;;8231384;28;20054;-85
2022/04/07 01:39:28;;;;;;;15.50;7.65;;;;;;;;;;8235771;28;20384;-85
2022/04/07 01:43:34;;;;;;;14.38;7.80;;;;;;;;;;8238532;28;20130;-86
2022/04/07 01:47:43;;;;;;;17.02;8.23;;;;;;;;;;8240667;28;20054;-86
2022/04/07 01:51:46;;;;;;;12.80;6.47;;;;;;;;;;8239288;28;20050;-86
2022/04/07 01:55:52;;;;;;;13.88;7.10;;;;;;;;;;8240388;28;20125;-86
2022/04/07 02:00:02;;;;;;;15.93;8.13;;;;;;;;;;8239036;28;20051;-86
2022/04/07 02:04:06;;;;;;;17.00;7.28;;;;;;;;;;8239352;28;20057;-87
2022/04/07 02:08:12;;;;;;;14.10;7.70;;;;;;;;;;8238823;28;20090;-86
2022/04/07 02:12:20;;;;;;;14.30;7.28;;;;;;;;;;8239060;28;20495;-86
2022/04/07 02:16:27;;;;;;;14.48;7.35;;;;;;;;;;8237823;28;20565;-86
2022/04/07 02:20:30;;;;;;;14.77;7.47;;;;;;;;;;8237452;28;20055;-86
2022/04/07 02:24:37;;;;;;;17.65;7.88;;;;;;;;;;8237956;28;20055;-86
2022/04/07 02:28:43;;;;;;;15.38;7.45;;;;;;;;;;8238410;28;20050;-86
2022/04/07 02:32:52;;;;;;;13.27;7.45;;;;;;;;;;8237762;28;20209;-86
2022/04/07 02:36:54;;;;;;;17.08;8.25;;;;;;;;;;8237829;28;20467;-87
2022/04/07 02:41:00;;;;;;;13.60;6.78;;;;;;;;;;8238116;28;20046;-86
2022/04/07 02:45:03;;;;;;;13.80;7.65;;;;;;;;;;8253647;28;20051;-86
2022/04/07 02:49:07;;;;;;;14.82;7.57;;;;;;;;;;8237775;28;20051;-86
2022/04/07 02:53:13;;;;;;;13.93;7.35;;;;;;;;;;8240977;28;20513;-86
2022/04/07 02:57:16;;;;;;;15.30;7.13;;;;;;;;;;8302117;28;20060;-86
2022/04/07 03:01:22;;;;;;;15.25;7.32;;;;;;;;;;8301882;28;20069;-86
2022/04/07 03:05:31;;;;;;;13.23;8.10;;;;;;;;;;8261699;28;20055;-86
2022/04/07 03:09:36;;;;;;;14.18;7.72;;;;;;;;;;8237090;28;20051;-86
2022/04/07 03:13:42;;;;;;;13.60;7.50;;;;;;;;;;8236153;28;20055;-86
2022/04/07 03:17:44;;;;;;;15.82;7.68;;;;;;;;;;8236238;28;20430;-86
2022/04/07 03:21:51;;;;;;;13.90;7.55;;;;;;;;;;8237221;28;20043;-85
2022/04/07 03:25:54;;;;;;;14.60;7.70;;;;;;;;;;8236495;28;20050;-86
2022/04/07 03:30:00;;;;;;;14.77;7.97;;;;;;;;;;8235910;28;20055;-84
2022/04/07 03:34:03;;;;;;;12.95;7.03;;;;;;;;;;8235996;28;20446;-86
2022/04/07 03:38:10;;;;;;;13.93;7.50;;;;;;;;;;8235346;28;20137;-86
2022/04/07 03:42:13;;;;;;;21.02;9.52;;;;;;;;;;8236478;28;20053;-86
2022/04/07 03:46:21;;;;;;;15.63;7.93;;;;;;;;;;8236199;28;20050;-86
2022/04/07 03:50:24;;;;;;;13.02;7.50;;;;;;;;;;8235775;28;20050;-86
2022/04/07 03:54:30;;;;;;;13.55;7.28;;;;;;;;;;8235642;28;20550;-86
2022/04/07 03:58:38;;;;;;;13.60;6.97;;;;;;;;;;8235754;28;20047;-85
2022/04/07 04:02:41;;;;;;;16.48;7.90;;;;;;;;;;8234534;28;20091;-85
2022/04/07 04:06:43;;;;;;;12.48;7.32;;;;;;;;;;8235610;28;20046;-85
2022/04/07 04:10:50;;;;;;;16.35;8.02;;;;;;;;;;8235194;28;20077;-86
2022/04/07 04:14:56;;;;;;;13.23;7.40;;;;;;;;;;8234220;28;20059;-86
2022/04/07 04:19:01;;;;;;;14.63;8.25;;;;;;;;;;8234825;28;20058;-86
2022/04/07 04:23:08;;;;;;;13.75;7.72;;;;;;;;;;8234925;28;20403;-87
2022/04/07 04:27:17;;;;;;;19.42;11.82;;;;;;;;;;8234406;28;20137;-86
2022/04/07 04:31:24;;;;;;;19.52;11.50;;;;;;;;;;8352226;23;20471;-87
2022/04/07 04:36:05;;;;;;;26.63;12.80;;;;;;;;;;8266870;28;20046;-85
2022/04/07 04:40:12;;;;;;;18.63;10.57;;;;;;;;;;8268929;28;20595;-86
2022/04/07 04:44:16;;;;;;;14.27;7.53;;;;;;;;;;8263450;28;20364;-86
2022/04/07 04:48:21;;;;;;;12.60;7.15;;;;;;;;;;8265222;28;20209;-85
2022/04/07 04:52:26;;;;;;;11.88;7.72;;;;;;;;;;8265723;28;20046;-85
2022/04/07 04:56:30;;;;;;;14.75;8.00;;;;;;;;;;8265950;28;20137;-86
2022/04/07 05:00:38;;;;;;;13.20;7.10;;;;;;;;;;8265059;28;20061;-86
2022/04/07 05:04:41;;;;;;;13.68;7.47;;;;;;;;;;8265756;28;20062;-86
2022/04/07 05:08:44;;;;;;;14.45;7.80;;;;;;;;;;8266042;28;20108;-86
2022/04/07 05:12:50;;;;;;;13.43;7.53;;;;;;;;;;8265734;28;20410;-86
2022/04/07 05:16:55;;;;;;;13.38;7.18;;;;;;;;;;8271606;23;20061;-86
2022/04/07 05:21:00;;;;;;;13.48;7.25;;;;;;;;;;8244949;28;20057;-86
2022/04/07 05:25:05;;;;;;;13.60;7.20;;;;;;;;;;8264850;28;20061;-86
2022/04/07 05:29:09;;;;;;;12.90;6.85;;;;;;;;;;8264651;28;20046;-87
2022/04/07 05:33:17;;;;;;;13.40;6.80;;;;;;;;;;8265223;28;20125;-86
2022/04/07 05:37:21;;;;;;;9.68;5.93;;;;;;;;;;8264608;28;20058;-87
2022/04/07 05:41:24;;;;;;;14.82;6.93;;;;;;;;;;8276745;28;20064;-87
2022/04/07 05:45:30;;;;;;;12.65;6.28;;;;;;;;;;8297495;28;20046;-86
2022/04/07 05:49:40;;;;;;;13.65;6.50;;;;;;;;;;8297245;28;20425;-87
2022/04/07 05:53:46;;;;;;;12.18;6.60;;;;;;;;;;8296647;28;20473;-87
2022/04/07 05:57:52;;;;;;;10.30;5.60;;;;;;;;;;8297172;28;20054;-87
2022/04/07 06:01:58;;;;;;;10.02;5.85;;;;;;;;;;8297113;28;20139;-88
2022/04/07 06:06:05;;;;;;;12.35;5.30;;;;;;;;;;8281202;28;20062;-87
2022/04/07 06:10:10;;;;;;;9.10;5.32;;;;;;;;;;8264191;28;20050;-87
2022/04/07 06:14:15;;;;;;;9.32;5.13;;;;;;;;;;8263948;28;20057;-86
2022/04/07 06:18:20;;;;;;;10.93;5.07;;;;;;;;;;8264988;28;20073;-88
2022/04/07 06:22:27;;;;;;;9.10;4.70;;;;;;;;;;8264115;28;20078;-87
2022/04/07 06:26:30;;;;;;;9.52;4.88;;;;;;;;;;8266836;28;20050;-87
2022/04/07 06:30:32;;;;;;;7.95;4.32;;;;;;;;;;8270483;28;20498;-87
2022/04/07 06:34:36;;;;;;;9.10;4.13;;;;;;;;;;8270484;28;20043;-87
2022/04/07 06:38:40;;;;;;;9.15;4.25;;;;;;;;;;8270638;28;20050;-86
2022/04/07 06:42:43;;;;;;;8.48;4.65;;;;;;;;;;8270735;28;20050;-86
2022/04/07 06:46:50;;;;;;;12.65;4.95;;;;;;;;;;8270158;28;20053;-84
2022/04/07 06:50:53;;;;;;;7.78;5.00;;;;;;;;;;8269173;28;20074;-88
2022/04/07 06:55:02;;;;;;;8.52;4.88;;;;;;;;;;8286834;28;20460;-88
2022/04/07 06:59:08;;;;;;;7.50;4.88;;;;;;;;;;8302321;28;20416;-87
2022/04/07 07:03:15;;;;;;;9.50;4.75;;;;;;;;;;8301121;28;20065;-87
2022/04/07 07:07:21;;;;;;;11.60;4.75;;;;;;;;;;8270092;28;20157;-88
2022/04/07 07:11:28;;;;;;;7.82;4.60;;;;;;;;;;8270899;28;20552;-88
2022/04/07 07:15:30;;;;;;;9.07;5.10;;;;;;;;;;8274098;28;20050;-86
2022/04/07 07:19:36;;;;;;;9.93;5.25;;;;;;;;;;8269973;28;20149;-88
2022/04/07 07:23:39;;;;;;;8.35;4.90;;;;;;;;;;8271641;28;20078;-86
2022/04/07 07:27:45;;;;;;;10.93;5.47;;;;;;;;;;8270417;28;20096;-88
2022/04/07 07:31:51;;;;;;;9.30;4.85;;;;;;;;;;8271992;28;20062;-84
2022/04/07 07:35:53;;;;;;;10.48;5.07;;;;;;;;;;8269193;28;20153;-87
2022/04/07 07:39:57;;;;;;;8.32;4.88;;;;;;;;;;8269339;28;20054;-86
2022/04/07 07:44:03;;;;;;;10.18;4.97;;;;;;;;;;8270824;28;20490;-87
2022/04/07 07:48:12;;;;;;;8.82;4.65;;;;;;;;;;8272095;28;20505;-86
2022/04/07 07:52:14;;;;;;;8.32;4.90;;;;;;;;;;8269124;28;20057;-86
2022/04/07 07:56:17;;;;;;;7.68;4.30;;;;;;;;;;8270162;28;20057;-85
2022/04/07 08:00:24;;;;;;;7.82;4.28;;;;;;;;;;8269122;28;20057;-85
2022/04/07 08:04:30;;;;;;;7.25;3.88;;;;;;;;;;8270467;28;20061;-87
2022/04/07 08:08:33;;;;;;;6.03;3.60;;;;;;;;;;8268859;28;20486;-87
2022/04/07 08:12:38;;;;;;;8.05;3.85;;;;;;;;;;8269953;28;20044;-86
2022/04/07 08:16:42;;;;;;;5.00;3.28;;;;;;;;;;8269371;28;20294;-86
2022/04/07 08:20:46;;;;;;;6.93;3.50;;;;;;;;;;8269035;28;20047;-87
2022/04/07 08:24:49;;;;;;;12.35;3.70;;;;;;;;;;8269525;28;20080;-87
2022/04/07 08:28:53;;;;;;;9.05;3.80;;;;;;;;;;8268537;28;20070;-85
2022/04/07 08:32:59;;;;;;;7.63;3.53;;;;;;;;;;8267913;28;20077;-88
2022/04/07 08:37:04;;;;;;;6.47;3.47;;;;;;;;;;8268397;28;20402;-85
2022/04/07 08:41:11;;;;;;;6.10;3.47;;;;;;;;;;8268118;28;20116;-84
2022/04/07 08:45:15;;;;;;;5.50;3.47;;;;;;;;;;8269822;28;20085;-86
2022/04/07 08:49:22;;;;;;;6.28;3.13;;;;;;;;;;8268904;28;20042;-86
2022/04/07 08:53:27;;;;;;;6.85;3.22;;;;;;;;;;8270873;28;20050;-88
2022/04/07 08:57:32;;;;;;;6.45;2.83;;;;;;;;;;8268973;28;20057;-87
2022/04/07 09:01:35;;;;;;;5.38;3.38;;;;;;;;;;8267906;28;20053;-87
2022/04/07 09:05:54;;;;;;;6.07;3.03;;;;;;;;;;8267002;28;20533;-86
2022/04/07 09:09:59;;;;;;;6.80;3.70;;;;;;;;;;8266814;28;20395;-86
2022/04/07 09:14:02;;;;;;;7.25;3.80;;;;;;;;;;8266627;28;20057;-84
2022/04/07 09:18:06;;;;;;;5.50;3.38;;;;;;;;;;8265644;28;20058;-83
2022/04/07 09:22:13;;;;;;;6.22;3.33;;;;;;;;;;8265738;28;20517;-87
2022/04/07 09:26:17;;;;;;;4.90;3.28;;;;;;;;;;8266170;28;20050;-85
2022/04/07 09:30:23;;;;;;;6.65;3.22;;;;;;;;;;8265612;28;20046;-87
2022/04/07 09:34:35;;;;;;;8.93;3.70;;;;;;;;;;8266888;28;20047;-83
2022/04/07 09:38:41;;;;;;;5.00;3.10;;;;;;;;;;8267550;28;20042;-85
2022/04/07 09:42:45;;;;;;;5.28;2.72;;;;;;;;;;8267725;28;20121;-83
2022/04/07 09:46:48;;;;;;;3.58;2.40;;;;;;;;;;8266888;28;20046;-83
2022/04/07 09:51:04;;;;;;;5.80;2.22;;;;;;;;;;8266091;28;20047;-84
2022/04/07 09:55:13;;;;;;;5.28;2.10;;;;;;;;;;8265602;28;20121;-84
2022/04/07 09:59:20;;;;;;;4.53;2.00;;;;;;;;;;8264406;28;20137;-86
2022/04/07 10:03:26;;;;;;;3.83;2.10;;;;;;;;;;8271291;28;20383;-85
2022/04/07 10:07:30;;;;;;;3.45;1.70;;;;;;;;;;8272316;28;20520;-82
2022/04/07 10:11:37;;;;;;;3.83;2.10;;;;;;;;;;8273103;28;20053;-85
2022/04/07 10:15:42;;;;;;;3.50;1.70;;;;;;;;;;8270987;28;20093;-86
2022/04/07 10:19:54;;;;;;;4.72;1.90;;;;;;;;;;8449243;23;20102;-86
2022/04/07 10:24:31;;;;;;;2.85;1.88;;;;;;;;;;8272025;28;20054;-85
2022/04/07 10:28:35;;;;;;;3.20;1.33;;;;;;;;;;8271829;28;20046;-86
2022/04/07 10:32:40;;;;;;;5.90;3.00;;;;;;;;;;8272161;28;20174;-86
2022/04/07 10:36:43;;;;;;;3.00;1.83;;;;;;;;;;8271223;28;20046;-85
2022/04/07 10:40:50;;;;;;;6.60;3.85;;;;;;;;;;8271251;28;20054;-86
2022/04/07 10:45:09;;;;;;;2.40;1.52;;;;;;;;;;8270638;28;20077;-83
2022/04/07 10:49:19;;;;;;;3.03;1.90;;;;;;;;;;8271376;28;20046;-87
2022/04/07 10:53:24;;;;;;;2.45;1.50;;;;;;;;;;8273357;28;20065;-85
2022/04/07 10:57:27;;;;;;;1.70;1.40;;;;;;;;;;8302671;28;20046;-82
2022/04/07 11:01:53;;;;;;;3.33;1.65;;;;;;;;;;8270444;28;20050;-81
2022/04/07 11:06:07;;;;;;;2.35;1.48;;;;;;;;;;8258879;28;20097;-85
2022/04/07 11:10:45;;;;;;;4.30;1.42;;;;;;;;;;8269441;28;20050;-85
2022/04/07 11:14:51;;;;;;;4.68;1.50;;;;;;;;;;8270727;28;20068;-85
2022/04/07 11:19:18;;;;;;;3.05;1.70;;;;;;;;;;8269289;28;20502;-82
2022/04/07 11:23:46;;;;;;;2.75;1.58;;;;;;;;;;8259267;28;20042;-85
2022/04/07 11:28:14;;;;;;;1.90;1.50;;;;;;;;;;8261231;28;20390;-86
2022/04/07 11:32:23;;;;;;;3.38;1.75;;;;;;;;;;8268483;28;20482;-84
2022/04/07 11:36:35;;;;;;;2.63;1.55;;;;;;;;;;8236800;28;20074;-87
2022/04/07 11:40:59;;;;;;;2.22;1.40;;;;;;;;;;8236933;28;20534;-83
2022/04/07 11:45:02;;;;;;;2.15;1.25;;;;;;;;;;8236778;28;20057;-84
2022/04/07 11:49:05;;;;;;;3.20;1.70;;;;;;;;;;8250796;28;20042;-84
2022/04/07 11:53:09;;;;;;;3.22;1.75;;;;;;;;;;8245468;28;20379;-80
2022/04/07 11:57:12;;;;;;;1.75;1.45;;;;;;;;;;8265794;28;20055;-83
2022/04/07 12:01:15;;;;;;;2.47;1.60;;;;;;;;;;8267383;28;20051;-86
2022/04/07 12:05:18;;;;;;;2.88;1.60;;;;;;;;;;8266805;28;20053;-83
2022/04/07 12:09:22;;;;;;;1.92;1.38;;;;;;;;;;8267012;28;20046;-80
2022/04/07 12:13:25;;;;;;;4.65;1.70;;;;;;;;;;8267650;28;20077;-80
2022/04/07 12:17:28;;;;;;;2.60;1.58;;;;;;;;;;8268247;28;20078;-82
2022/04/07 12:21:51;;;;;;;3.03;1.73;;;;;;;;;;8267493;28;20057;-85
2022/04/07 12:26:01;;;;;;;1.48;1.27;;;;;;;;;;8266842;28;20065;-85
2022/04/07 12:30:06;;;;;;;2.70;1.55;;;;;;;;;;8268013;28;20497;-85
2022/04/07 12:34:11;;;;;;;2.25;1.25;;;;;;;;;;8267261;28;20046;-86
2022/04/07 12:38:14;;;;;;;3.70;1.60;;;;;;;;;;8267822;28;20542;-86
2022/04/07 12:42:18;;;;;;;2.42;1.30;;;;;;;;;;8267728;28;20431;-84
2022/04/07 12:46:22;;;;;;;2.22;1.60;;;;;;;;;;8267069;28;20051;-81
2022/04/07 12:50:28;;;;;;;3.20;1.58;;;;;;;;;;8267312;28;20569;-86
2022/04/07 12:54:31;;;;;;;3.97;1.50;;;;;;;;;;8274168;28;20050;-85
2022/04/07 12:58:35;;;;;;;3.65;1.60;;;;;;;;;;8268696;28;20123;-84
2022/04/07 13:02:46;;;;;;;1.45;1.20;;;;;;;;;;8266624;28;20061;-83
2022/04/07 13:06:49;;;;;;;2.23;1.50;;;;;;;;;;8278500;28;20073;-85
2022/04/07 13:24:06;;;;;;;4.03;1.10;;;;;;;;;;8257411;28;20449;-79
2022/04/07 13:28:10;;;;;;;1.13;1.05;;;;;;;;;;8261676;28;20050;-78
2022/04/07 13:32:13;;;;;;;1.85;1.10;;;;;;;;;;8261130;28;20125;-78
2022/04/07 13:36:16;;;;;;;2.13;1.45;;;;;;;;;;8261673;28;20047;-77
2022/04/07 13:40:21;;;;;;;1.35;1.25;;;;;;;;;;8261585;28;20066;-76
2022/04/07 13:44:24;;;;;;;2.45;1.20;;;;;;;;;;8260627;28;20053;-78
2022/04/07 13:48:27;;;;;;;2.72;1.30;;;;;;;;;;8255611;28;20074;-78
2022/04/07 13:52:30;;;;;;;3.45;2.00;;;;;;;;;;8259844;28;20058;-77
2022/04/07 13:56:37;;;;;;;4.70;1.80;;;;;;;;;;8258462;28;20047;-78
2022/04/07 14:00:44;;;;;;;2.55;1.70;;;;;;;;;;8259816;28;20043;-79
2022/04/07 14:04:53;;;;;;;3.08;1.67;;;;;;;;;;8259565;28;20042;-80
2022/04/07 14:09:14;;;;;;;2.45;1.52;;;;;;;;;;8259729;28;20401;-79
2022/04/07 14:13:30;;;;;;;4.03;1.63;;;;;;;;;;8259514;28;20053;-79
2022/04/07 14:17:43;;;;;;;2.67;1.90;;;;;;;;;;8259290;28;20051;-79
2022/04/07 14:21:52;;;;;;;2.58;1.80;;;;;;;;;;8259144;28;20089;-78
2022/04/07 14:26:00;;;;;;;;;;;;;;;;;;8259418;28;20154;-78
2022/04/07 14:30:14;;;;;;;3.45;1.85;;;;;;;;;;8242490;28;19930;-79
2022/04/07 14:34:23;;;;;;;3.58;1.70;;;;;;;;;;8237333;28;20047;-78
2022/04/07 14:38:31;;;;;;;2.83;1.90;;;;;;;;;;8235992;28;20066;-79
2022/04/07 14:42:40;;;;;;;2.95;1.70;;;;;;;;;;8237207;28;20502;-79
2022/04/07 14:46:51;;;;;;;1.92;1.40;;;;;;;;;;8236691;28;20521;-79
2022/04/07 14:51:11;;;;;;;3.75;1.70;;;;;;;;;;8236501;28;20074;-79
2022/04/07 14:55:15;;;;;;;2.95;1.58;;;;;;;;;;8234709;28;20058;-78
2022/04/07 14:59:23;;;;;;;7.07;2.05;;;;;;;;;;8236658;28;20042;-78
2022/04/07 15:03:29;;;;;;;3.33;1.80;;;;;;;;;;8231946;28;20043;-78
2022/04/07 15:07:34;;;;;;;3.28;1.95;;;;;;;;;;8233718;28;20054;-78
2022/04/07 15:11:37;;;;;;;3.60;1.67;;;;;;;;;;8235562;28;20101;-78
2022/04/07 15:15:40;;;;;;;3.47;1.80;;;;;;;;;;8236649;28;20042;-79
2022/04/07 15:19:46;;;;;;;4.05;2.00;;;;;;;;;;8236336;28;20055;-79
2022/04/07 15:23:49;;;;;;;8.80;4.82;;;;;;;;;;8539085;23;20053;-75
2022/04/07 15:27:52;;;;;;;3.08;1.98;;;;;;;;;;8235059;28;20046;-75
2022/04/07 15:31:55;;;;;;;3.80;2.50;;;;;;;;;;8234189;28;20482;-75
2022/04/07 15:36:00;;;;;;;3.15;2.20;;;;;;;;;;8233209;28;20177;-74
2022/04/07 15:40:05;;;;;;;5.75;4.45;;;;;;;;;;8230786;28;20047;-75
2022/04/07 15:44:12;;;;;;;4.40;1.83;;;;;;;;;;8209492;28;20043;-75
2022/04/07 15:48:16;;;;;;;9.75;4.45;;;;;;;;;;8209070;28;20047;-75
2022/04/07 15:52:21;;;;;;;2.17;1.83;;;;;;;;;;8201493;28;20114;-75
2022/04/07 15:56:25;;;;;;;6.50;3.35;;;;;;;;;;8203452;28;20047;-76
2022/04/07 16:00:30;;;;;;;3.55;2.30;;;;;;;;;;8201104;28;20043;-75
2022/04/07 16:04:37;;;;;;;3.63;2.40;;;;;;;;;;8207788;28;20039;-76
2022/04/07 16:08:44;;;;;;;2.90;1.70;;;;;;;;;;8202959;28;20395;-74
2022/04/07 16:12:47;;;;;;;18.25;8.43;;;;;;;;;;8206873;28;20054;-74
2022/04/07 16:16:52;;;;;;;3.78;2.17;;;;;;;;;;8207266;28;20055;-74
2022/04/07 16:20:56;;;;;;;19.65;8.35;;;;;;;;;;8200053;28;20554;-75
2022/04/07 16:25:08;;;;;;;2.83;1.95;;;;;;;;;;8206747;28;20051;-76
2022/04/07 16:29:12;;;;;;;3.20;1.95;;;;;;;;;;8229724;28;20051;-79
2022/04/07 16:33:15;;;;;;;7.95;2.25;;;;;;;;;;8218352;28;20044;-75
2022/04/07 16:37:18;;;;;;;3.33;2.05;;;;;;;;;;8233069;28;20097;-74
2022/04/07 16:41:22;;;;;;;2.90;1.80;;;;;;;;;;8232613;28;20058;-74
2022/04/07 16:45:29;;;;;;;3.75;1.77;;;;;;;;;;8228015;28;20061;-75
2022/04/07 16:49:34;;;;;;;4.70;1.98;;;;;;;;;;8229601;28;20475;-74
2022/04/07 16:53:37;;;;;;;4.15;2.13;;;;;;;;;;8232571;28;20047;-74
2022/04/07 16:57:41;;;;;;;2.55;1.63;;;;;;;;;;8231595;28;20582;-74
2022/04/07 17:01:44;;;;;;;3.42;2.00;;;;;;;;;;8231838;28;20605;-74
2022/04/07 17:05:47;;;;;;;3.63;2.20;;;;;;;;;;8232891;28;20051;-74
2022/04/07 17:09:50;;;;;;;4.45;2.15;;;;;;;;;;8233028;28;20051;-74
2022/04/07 17:13:55;;;;;;;4.70;2.58;;;;;;;;;;8233037;28;20449;-74
2022/04/07 17:18:00;;;;;;;3.72;2.05;;;;;;;;;;8231076;28;20058;-75
2022/04/07 17:22:07;;;;;;;3.53;2.28;;;;;;;;;;8232751;28;20517;-75
2022/04/07 17:26:15;;;;;;;22.27;14.30;;;;;;;;;;8232466;28;20482;-74
2022/04/07 17:30:22;;;;;;;7.55;4.60;;;;;;;;;;8229550;28;20043;-74
2022/04/07 17:34:25;;;;;;;5.07;2.38;;;;;;;;;;8231339;28;20054;-73
2022/04/07 17:38:28;;;;;;;3.63;2.35;;;;;;;;;;8232729;28;20098;-75
2022/04/07 17:42:31;;;;;;;4.05;2.25;;;;;;;;;;8229252;28;20043;-75
2022/04/07 17:46:36;;;;;;;3.97;2.45;;;;;;;;;;8228058;28;20043;-74
2022/04/07 17:50:39;;;;;;;14.27;8.20;;;;;;;;;;8226080;28;20043;-74
2022/04/07 17:54:42;;;;;;;5.18;2.75;;;;;;;;;;8219805;28;20101;-76
2022/04/07 17:58:46;;;;;;;4.47;2.65;;;;;;;;;;8216849;28;20130;-75
2022/04/07 18:03:20;;;;;;;20.05;10.00;;;;;;;;;;8233226;28;20402;-74
2022/04/07 18:07:36;;;;;;;21.40;11.02;;;;;;;;;;8238861;28;20054;-75
2022/04/07 18:11:42;;;;;;;12.47;7.70;;;;;;;;;;8238325;28;20113;-75
2022/04/07 18:15:52;;;;;;;14.50;9.40;;;;;;;;;;8238372;28;20054;-74
2022/04/07 18:20:02;;;;;;;14.63;6.10;;;;;;;;;;8238289;28;20554;-73
2022/04/07 18:24:09;;;;;;;7.75;4.28;;;;;;;;;;8236658;28;20086;-74
2022/04/07 18:28:20;;;;;;;4.63;2.78;;;;;;;;;;8237935;28;20054;-73
2022/04/07 18:32:24;;;;;;;11.75;7.90;;;;;;;;;;8237850;28;20042;-73
2022/04/07 18:36:35;;;;;;;4.75;2.90;;;;;;;;;;8238011;28;20096;-74
2022/04/07 18:40:47;;;;;;;6.43;3.28;;;;;;;;;;8236617;28;20434;-77
2022/04/07 18:44:53;;;;;;;5.50;2.63;;;;;;;;;;8237488;28;20046;-73
2022/04/07 18:49:09;;;;;;;5.80;3.30;;;;;;;;;;8237817;28;20121;-74
2022/04/07 18:53:22;;;;;;;4.68;2.58;;;;;;;;;;8237364;28;20379;-74
2022/04/07 18:57:42;;;;;;;4.65;2.40;;;;;;;;;;8236731;28;20054;-74
2022/04/07 19:02:06;;;;;;;6.85;2.83;;;;;;;;;;8238509;28;20047;-74
2022/04/07 19:06:37;;;;;;;5.72;2.50;;;;;;;;;;8268875;28;20129;-74
2022/04/07 19:11:03;;;;;;;3.97;2.20;;;;;;;;;;8268919;28;20056;-74
2022/04/07 19:15:29;;;;;;;5.45;2.17;;;;;;;;;;8238051;28;20507;-73
2022/04/07 19:19:38;;;;;;;4.80;2.28;;;;;;;;;;8224273;28;20126;-73
2022/04/07 19:23:43;;;;;;;5.45;2.50;;;;;;;;;;8233365;28;20418;-74
2022/04/07 19:27:48;;;;;;;5.53;2.58;;;;;;;;;;8234368;28;20051;-74
2022/04/07 19:31:52;;;;;;;7.63;2.70;;;;;;;;;;8236107;28;20046;-73
2022/04/07 19:35:55;;;;;;;5.20;2.70;;;;;;;;;;8236015;28;20047;-73
2022/04/07 19:39:58;;;;;;;4.38;2.22;;;;;;;;;;8236331;28;20482;-73
2022/04/07 19:44:02;;;;;;;6.72;2.70;;;;;;;;;;8235785;28;20075;-73
2022/04/07 19:48:07;;;;;;;5.80;2.97;;;;;;;;;;8235628;28;20137;-73
2022/04/07 19:52:10;;;;;;;8.65;4.05;;;;;;;;;;8235462;28;20089;-73
2022/04/07 19:56:14;;;;;;;8.90;3.63;;;;;;;;;;8235364;28;20051;-73
2022/04/07 20:00:21;;;;;;;9.70;5.13;;;;;;;;;;8235203;28;20050;-73
2022/04/07 20:04:25;;;;;;;4.97;2.45;;;;;;;;;;8235083;28;20386;-73
2022/04/07 20:08:28;;;;;;;5.07;2.60;;;;;;;;;;8234851;28;20055;-73
2022/04/07 20:12:31;;;;;;;5.38;2.53;;;;;;;;;;8235314;28;20471;-73
2022/04/07 20:16:35;;;;;;;7.32;2.65;;;;;;;;;;8235179;28;20074;-73
2022/04/07 20:20:38;;;;;;;5.53;2.70;;;;;;;;;;8235146;28;20141;-73
2022/04/07 20:24:43;;;;;;;5.43;2.88;;;;;;;;;;8234322;28;20061;-73
2022/04/07 20:28:46;;;;;;;5.88;2.70;;;;;;;;;;8234633;28;20446;-73
2022/04/07 20:32:50;;;;;;;5.57;2.70;;;;;;;;;;8234224;28;20050;-73
2022/04/07 20:36:53;;;;;;;6.72;2.92;;;;;;;;;;8234181;28;20053;-73
2022/04/07 20:40:56;;;;;;;15.27;6.18;;;;;;;;;;8234120;28;20078;-74
2022/04/07 20:44:59;;;;;;;26.70;10.25;;;;;;;;;;8233968;28;20051;-73
2022/04/07 20:49:03;;;;;;;10.35;6.47;;;;;;;;;;8233733;28;20078;-73
2022/04/07 20:53:06;;;;;;;11.02;7.72;;;;;;;;;;8233271;28;20049;-74
2022/04/07 20:57:09;;;;;;;18.25;10.75;;;;;;;;;;8233661;28;20134;-73
2022/04/07 21:01:11;;;;;;;6.30;3.28;;;;;;;;;;8233599;28;20475;-73
2022/04/07 21:05:17;;;;;;;6.18;3.30;;;;;;;;;;8233956;28;20069;-74
2022/04/07 21:09:20;;;;;;;5.65;2.97;;;;;;;;;;8233469;28;20042;-74
2022/04/07 21:13:27;;;;;;;5.70;2.60;;;;;;;;;;8233313;28;20051;-74
2022/04/07 21:17:30;;;;;;;5.10;2.50;;;;;;;;;;8233824;28;20046;-73
2022/04/07 21:21:34;;;;;;;4.88;2.35;;;;;;;;;;8233497;28;20058;-74
2022/04/07 21:25:37;;;;;;;6.20;2.45;;;;;;;;;;8233667;28;20046;-73
2022/04/07 21:29:40;;;;;;;4.90;2.42;;;;;;;;;;8233515;28;20475;-74
2022/04/07 21:33:43;;;;;;;4.90;2.25;;;;;;;;;;8233567;28;20054;-74
2022/04/07 21:37:47;;;;;;;4.13;2.20;;;;;;;;;;8233627;28;20098;-74
2022/04/07 21:41:50;;;;;;;5.97;2.50;;;;;;;;;;8239495;28;20046;-74
2022/04/07 21:45:53;;;;;;;4.95;2.05;;;;;;;;;;8240397;28;20460;-74
2022/04/07 21:49:55;;;;;;;5.45;2.45;;;;;;;;;;8239043;28;20051;-74
2022/04/07 21:54:00;;;;;;;2.30;1.60;;;;;;;;;;8239127;28;20043;-76
2022/04/07 21:58:03;;;;;;;4.00;1.60;;;;;;;;;;8239541;28;20061;-74
2022/04/07 22:02:05;;;;;;;3.88;1.50;;;;;;;;;;8239359;28;20486;-74
2022/04/07 22:06:08;;;;;;;2.28;1.20;;;;;;;;;;8239275;28;20402;-75
2022/04/07 22:10:12;;;;;;;2.85;1.70;;;;;;;;;;8238574;28;20053;-74
2022/04/07 22:14:15;;;;;;;1.60;1.20;;;;;;;;;;8238489;28;20042;-76
2022/04/07 22:18:17;;;;;;;4.28;1.35;;;;;;;;;;8238383;28;20138;-76
2022/04/07 22:22:20;;;;;;;1.55;1.20;;;;;;;;;;8238368;28;20059;-76
2022/04/07 22:26:24;;;;;;;2.35;1.30;;;;;;;;;;8238648;28;20565;-76
2022/04/07 22:30:26;;;;;;;2.05;1.33;;;;;;;;;;8238378;28;20047;-76
2022/04/07 22:34:29;;;;;;;4.20;1.55;;;;;;;;;;8237879;28;20094;-76
2022/04/07 22:38:31;;;;;;;1.88;1.35;;;;;;;;;;8237824;28;20403;-76
2022/04/07 22:42:35;;;;;;;2.05;1.33;;;;;;;;;;8236258;28;20039;-76
2022/04/07 22:46:38;;;;;;;1.42;1.05;;;;;;;;;;8237386;28;20043;-76
2022/04/07 22:50:41;;;;;;;5.65;1.17;;;;;;;;;;8236946;28;20110;-76
2022/04/07 22:54:43;;;;;;;2.75;1.65;;;;;;;;;;8257504;28;20046;-76
2022/04/07 22:58:47;;;;;;;1.50;1.10;;;;;;;;;;8265267;28;20051;-76
2022/04/07 23:02:50;;;;;;;2.60;1.23;;;;;;;;;;8236915;28;20051;-76
2022/04/07 23:06:52;;;;;;;1.65;1.20;;;;;;;;;;8236958;28;20098;-76
2022/04/07 23:10:55;;;;;;;1.90;1.60;;;;;;;;;;8236706;28;20046;-77
2022/04/07 23:14:59;;;;;;;3.47;1.35;;;;;;;;;;8236648;28;20054;-76
2022/04/07 23:19:11;;;;;;;2.28;1.40;;;;;;;;;;8237095;28;20053;-76
2022/04/07 23:23:13;;;;;;;1.88;1.40;;;;;;;;;;8236417;28;20059;-76
2022/04/07 23:27:16;;;;;;;1.75;1.38;;;;;;;;;;8236039;28;20046;-76
2022/04/07 23:31:20;;;;;;;1.42;1.30;;;;;;;;;;8236672;28;20085;-76
2022/04/07 23:35:23;;;;;;;5.60;1.70;;;;;;;;;;8236570;28;20078;-75
2022/04/07 23:39:26;;;;;;;1.83;1.70;;;;;;;;;;8236384;28;20046;-75
2022/04/07 23:43:29;;;;;;;1.60;1.45;;;;;;;;;;8232624;28;20498;-76
2022/04/07 23:47:33;;;;;;;3.13;1.48;;;;;;;;;;8233527;28;20039;-76
2022/04/07 23:51:36;;;;;;;1.83;1.30;;;;;;;;;;8231721;28;20049;-76
2022/04/07 23:55:39;;;;;;;1.48;1.38;;;;;;;;;;8234471;28;20506;-76
2022/04/07 23:59:41;;;;;;;2.88;1.70;;;;;;;;;;8231345;28;20497;-76
